b-smile.jp alexa rank chart, b-smile.jp alexa rank daily changes

b-smile.jp alexa rank chart, b-smile.jp alexa rank daily changes

b-smile.jp
Actual rank:
628 721

RANK HISTORY

Date Rank Diff
2017/11/21 628 721 +86 144
2017/11/20 542 577 -2 342
2017/11/19 544 919 -1 222
2017/11/18 546 141 -435
2017/11/17 546 576 +2 024
2017/11/16 544 552 +2 596
2017/11/15 541 956 +1 337
2017/11/14 540 619 -1 753
2017/11/13 542 372 -1 902
2017/11/12 544 274 -88 151
2017/11/11 632 425 +118 275
2017/11/10 514 150 +12 793
2017/11/09 501 357 +61 463
2017/11/08 439 894 -48 452
2017/11/07 488 346 -1 263
2017/11/06 489 609 -1 412
2017/11/05 491 021 +56 615
2017/11/04 434 406 -2 336
2017/11/03 436 742 -1 412
2017/11/02 438 154 +682
2017/11/01 437 472 +12 040
2017/10/31 425 432 -1 167
2017/10/30 426 599 -2 012
2017/10/29 428 611 -907
2017/10/28 429 518 -737
2017/10/27 430 255 +33 709
2017/10/26 396 546 +1 402
2017/10/25 395 144 -93 223
2017/10/24 488 367 +29 524
2017/10/23 458 843 -2 126
2017/10/22 460 969 -855
2017/10/21 461 824 -57 091
2017/10/20 518 915 +46 167
2017/10/19 472 748 +1 874
2017/10/18 470 874 +2 220
2017/10/17 468 654 -1 495
2017/10/16 470 149 +29 209
2017/10/14 440 940 +44 713
2017/10/13 396 227 -574
2017/10/12 396 801 +1 351
2017/10/11 395 450 -72 628
2017/10/10 468 078 -64 275
2017/10/09 532 353 -85 625
2017/10/08 617 978 -1 344
2017/10/07 619 322 -1 252
2017/10/06 620 574 -782
2017/10/05 621 356 -136 350
2017/10/04 757 706 +2 682
2017/10/03 755 024 -2 442
2017/10/02 757 466 +206 897
2017/10/01 550 569 -16 821
2017/09/30 567 390 +46 856
2017/09/29 520 534 +1 948
2017/09/28 518 586 +43 384
2017/09/27 475 202 -12 660
2017/09/26 487 862 -1 635
2017/09/25 489 497 +49 541
2017/09/24 439 956 -28 288
2017/09/23 468 244 +1 888
2017/09/22 466 356

WIDGET FOR YOUR SITE

DOMAINS WITH THE NEAREST RANK

Domain Rank
jinzhoubank.com 628 716
citysuper.com.tw 628 717
dyvokray.org.ua 628 718
citizenhack.me 628 719
kinetica.com 628 720
b-smile.jp 628 721
techrocket.com 628 722
ozharvest.org 628 723
helloinspirationproducts.myshopify.com 628 724
szallasoutlet.hu 628 725
math-tests.com 628 726

DOMAINS WITH THE NEAREST RANK BY TLD .jp

Domain Rank
nexus-pc.jp 628 509
cocosta.jp 628 543
snacle.jp 628 696
code-g.jp 628 711
bas.jp 628 713
b-smile.jp 628 721
hulu-japan.jp 628 932
old-fashioned-girl.jp 629 029
firecyclone.jp 629 033
ownersbook.jp 629 136
e-girls-ldh.jp 629 144